• Join FlightAware (Why Join?)
  • Login
  • US Flag 
08:56AM EDT


 

Airport Tracker/Info


-or-


 

Live Flight TrackerFlight Track Log ✈ UCA3596 ✈ 17-Oct-2013 ✈ KIAD - KBGM

Flight Track Log - Related Links

Times and Time Zones

All times are in EDT time to prevent confusion due to time zone crossing. See the UCA3596 flight status page for this flight to view local times or setup timezone preferences in your user account.

Time Position Orientation Groundspeed Altitude Reporting Facility
EDT Latitude Longitude Course Direction KTS MPH feet Rate Location/Type
03:27PM 39.4352 -77.2480 19° North  Level Estimated
03:28PM 39.5048 -77.2175 19° North  Level Estimated
03:29PM 39.5744 -77.1869 19° North  Level Estimated
03:30PM 39.6441 -77.1563 19° North  Level Estimated
03:31PM 39.7137 -77.1256 19° North  Level Estimated
03:32PM 39.7833 -77.0948 19° North  Level Estimated
03:33PM 39.8529 -77.0640 19° North  Level Estimated
03:34PM 39.9225 -77.0331 19° North  Level Estimated
03:35PM 39.9921 -77.0022 19° North  Level Estimated
03:36PM 40.0616 -76.9711 19° North  Level Estimated
03:37PM 40.1312 -76.9401 19° North  Level Estimated
03:38PM 40.2008 -76.9089 19° North  Level Estimated
03:39PM 40.2703 -76.8777 19° North  Level Estimated
03:40PM 40.3399 -76.8465 19° North  Level Estimated
03:41PM 40.4094 -76.8151 19° North  Level Estimated
03:42PM 40.4789 -76.7837 19° North  Level Estimated
03:43PM 40.5485 -76.7523 19° North  Level Estimated
03:44PM 40.6180 -76.7207 19° North  Level Estimated
03:45PM 40.6875 -76.6891 19° North  Level Estimated
03:46PM 40.7570 -76.6575 19° North  Level Estimated
03:47PM 40.8264 -76.6257 19° North  Level Estimated
03:48PM 40.8959 -76.5940 19° North  Level Estimated
03:49PM 40.9654 -76.5621 19° North  Level Estimated
03:50PM 41.0349 -76.5302 19° North  Level Estimated
03:51PM 41.1043 -76.4982 19° North  Level Estimated
03:52PM 41.1737 -76.4661 19° North  Level Estimated
03:53PM 41.2432 -76.4340 19° North  Level Estimated
03:54PM 41.3126 -76.4018 19° North  Level Estimated
03:55PM 41.3820 -76.3695 19° North  Level Estimated
03:56PM 41.4514 -76.3372 19° North  Level Estimated
03:57PM 41.5208 -76.3048 19° North  Level Estimated
03:58PM 41.5902 -76.2723 19° North  Level Estimated
03:59PM 41.6596 -76.2397 19° North  Level Estimated
04:00PM 41.7289 -76.2071 19° North  Level Estimated
04:01PM 41.7983 -76.1744 19° North  Level Estimated
04:02PM 41.8676 -76.1417 19° North  Level Estimated
04:03PM 41.9370 -76.1088 19° North  Level Estimated
04:04PM 42.0063 -76.0760 19° North  Level Estimated
04:05PM 42.0756 -76.0430 19° North  Level Estimated
04:06PM 42.1450 -76.0099 19° North  Level Estimated
04:07PM 42.2084 -75.9796 19° North  Level Estimated
04:08PM 42.2084 -75.9796 35° Northeast  Level Estimated
04:09PM 42.2084 -75.9796 35° Northeast  Level Estimated
04:10PM 42.2084 -75.9796 35° Northeast  Level Estimated
04:11PM 42.2084 -75.9796 35° Northeast  Level Estimated
04:12PM 42.2084 -75.9796 35° Northeast  Level Estimated
04:13PM 42.2084 -75.9796 35° Northeast  Level Estimated
04:14PM 42.2084 -75.9796 35° Northeast  Level Estimated
04:15PM 42.2084 -75.9796 35° Northeast  Level Estimated
04:16PM 42.2084 -75.9796 35° Northeast  Level Estimated
04:17PM 42.2084 -75.9796 35° Northeast  Level Estimated
04:18PM 42.2084 -75.9796 35° Northeast  Level Estimated
04:19PM 42.2084 -75.9796 35° Northeast  Level Estimated
04:20PM 42.2084 -75.9796 35° Northeast  Level Estimated
04:21PM 42.2084 -75.9796 35° Northeast  Level Estimated
04:22PM 42.2084 -75.9796 35° Northeast  Level Estimated
04:23PM 42.2084 -75.9796 35° Northeast  Level Estimated